sensor_id;sensor_type;location;lat;lon;timestamp;temperature;humidity
23869;DHT22;12115;47.128;15.422;2022-11-14T00:00:43;8.50;99.90
23869;DHT22;12115;47.128;15.422;2022-11-14T00:03:29;8.50;99.90
23869;DHT22;12115;47.128;15.422;2022-11-14T00:06:14;8.60;99.90
23869;DHT22;12115;47.128;15.422;2022-11-14T00:08:59;8.50;99.90
23869;DHT22;12115;47.128;15.422;2022-11-14T00:11:45;8.50;99.90
23869;DHT22;12115;47.128;15.422;2022-11-14T00:14:30;8.40;99.90
23869;DHT22;12115;47.128;15.422;2022-11-14T00:17:15;8.40;99.90
23869;DHT22;12115;47.128;15.422;2022-11-14T00:20:00;8.40;99.90
23869;DHT22;12115;47.128;15.422;2022-11-14T00:22:46;8.50;99.90
23869;DHT22;12115;47.128;15.422;2022-11-14T00:25:31;8.50;99.90
23869;DHT22;12115;47.128;15.422;2022-11-14T00:28:16;8.50;99.90
23869;DHT22;12115;47.128;15.422;2022-11-14T00:31:02;8.50;99.90
23869;DHT22;12115;47.128;15.422;2022-11-14T00:33:47;8.40;99.90
23869;DHT22;12115;47.128;15.422;2022-11-14T00:36:32;8.50;99.90
23869;DHT22;12115;47.128;15.422;2022-11-14T00:39:18;8.50;99.90
23869;DHT22;12115;47.128;15.422;2022-11-14T00:42:03;8.50;99.90
23869;DHT22;12115;47.128;15.422;2022-11-14T00:44:49;8.40;99.90
23869;DHT22;12115;47.128;15.422;2022-11-14T00:47:34;8.50;99.90
23869;DHT22;12115;47.128;15.422;2022-11-14T00:50:20;8.50;99.90
23869;DHT22;12115;47.128;15.422;2022-11-14T00:54:56;8.60;99.90
23869;DHT22;12115;47.128;15.422;2022-11-14T00:57:41;8.70;99.90
23869;DHT22;12115;47.128;15.422;2022-11-14T01:00:27;8.70;99.90
23869;DHT22;12115;47.128;15.422;2022-11-14T01:03:12;8.70;99.90
23869;DHT22;12115;47.128;15.422;2022-11-14T01:06:03;8.70;99.90
23869;DHT22;12115;47.128;15.422;2022-11-14T01:08:50;8.70;99.90
23869;DHT22;12115;47.128;15.422;2022-11-14T01:11:36;8.70;99.90
23869;DHT22;12115;47.128;15.422;2022-11-14T01:14:22;8.60;99.90
23869;DHT22;12115;47.128;15.422;2022-11-14T01:17:07;8.50;99.90
23869;DHT22;12115;47.128;15.422;2022-11-14T01:19:53;8.50;99.90
23869;DHT22;12115;47.128;15.422;2022-11-14T01:22:39;8.40;99.90
23869;DHT22;12115;47.128;15.422;2022-11-14T01:25:24;8.40;99.90
23869;DHT22;12115;47.128;15.422;2022-11-14T01:28:15;8.30;99.90
23869;DHT22;12115;47.128;15.422;2022-11-14T01:31:09;8.40;99.90
23869;DHT22;12115;47.128;15.422;2022-11-14T01:33:55;8.30;99.90
23869;DHT22;12115;47.128;15.422;2022-11-14T01:36:41;8.20;99.90
23869;DHT22;12115;47.128;15.422;2022-11-14T01:39:26;8.20;99.90
23869;DHT22;12115;47.128;15.422;2022-11-14T01:42:12;8.30;99.90
23869;DHT22;12115;47.128;15.422;2022-11-14T01:44:57;8.30;99.90
23869;DHT22;12115;47.128;15.422;2022-11-14T01:47:43;8.30;99.90
23869;DHT22;12115;47.128;15.422;2022-11-14T01:50:29;8.30;99.90
23869;DHT22;12115;47.128;15.422;2022-11-14T01:53:14;8.20;99.90
23869;DHT22;12115;47.128;15.422;2022-11-14T01:56:02;8.20;99.90
23869;DHT22;12115;47.128;15.422;2022-11-14T01:58:57;8.30;99.90
23869;DHT22;12115;47.128;15.422;2022-11-14T02:01:48;8.30;99.90
23869;DHT22;12115;47.128;15.422;2022-11-14T02:04:39;8.30;99.90
23869;DHT22;12115;47.128;15.422;2022-11-14T02:07:27;8.30;99.90
23869;DHT22;12115;47.128;15.422;2022-11-14T02:10:19;8.30;99.90
23869;DHT22;12115;47.128;15.422;2022-11-14T02:13:05;8.30;99.90
23869;DHT22;12115;47.128;15.422;2022-11-14T02:15:51;8.30;99.90
23869;DHT22;12115;47.128;15.422;2022-11-14T02:18:36;8.30;99.90
23869;DHT22;12115;47.128;15.422;2022-11-14T02:21:22;8.30;99.90
23869;DHT22;12115;47.128;15.422;2022-11-14T02:24:09;8.30;99.90
23869;DHT22;12115;47.128;15.422;2022-11-14T02:26:54;8.20;99.90
23869;DHT22;12115;47.128;15.422;2022-11-14T02:29:41;8.20;99.90
23869;DHT22;12115;47.128;15.422;2022-11-14T02:32:26;8.20;99.90
23869;DHT22;12115;47.128;15.422;2022-11-14T02:35:16;8.20;99.90
23869;DHT22;12115;47.128;15.422;2022-11-14T02:38:02;8.20;99.90
23869;DHT22;12115;47.128;15.422;2022-11-14T02:40:48;8.20;99.90
23869;DHT22;12115;47.128;15.422;2022-11-14T02:43:33;8.10;99.90
23869;DHT22;12115;47.128;15.422;2022-11-14T02:46:19;8.10;99.90
23869;DHT22;12115;47.128;15.422;2022-11-14T02:49:04;8.10;99.90
23869;DHT22;12115;47.128;15.422;2022-11-14T02:51:50;8.10;99.90
23869;DHT22;12115;47.128;15.422;2022-11-14T02:54:35;8.10;99.90
23869;DHT22;12115;47.128;15.422;2022-11-14T02:57:21;8.20;99.90
23869;DHT22;12115;47.128;15.422;2022-11-14T03:00:07;8.20;99.90
23869;DHT22;12115;47.128;15.422;2022-11-14T03:02:59;8.20;99.90
23869;DHT22;12115;47.128;15.422;2022-11-14T03:05:44;8.20;99.90
23869;DHT22;12115;47.128;15.422;2022-11-14T03:08:30;8.20;99.90
23869;DHT22;12115;47.128;15.422;2022-11-14T03:11:15;8.20;99.90
23869;DHT22;12115;47.128;15.422;2022-11-14T03:14:01;8.20;99.90
23869;DHT22;12115;47.128;15.422;2022-11-14T03:16:47;8.20;99.90
23869;DHT22;12115;47.128;15.422;2022-11-14T03:19:32;8.10;99.90
23869;DHT22;12115;47.128;15.422;2022-11-14T03:22:18;8.10;99.90
23869;DHT22;12115;47.128;15.422;2022-11-14T03:25:03;8.10;99.90
23869;DHT22;12115;47.128;15.422;2022-11-14T03:27:49;8.10;99.90
23869;DHT22;12115;47.128;15.422;2022-11-14T03:30:34;8.10;99.90
23869;DHT22;12115;47.128;15.422;2022-11-14T03:33:20;8.10;99.90
23869;DHT22;12115;47.128;15.422;2022-11-14T03:36:06;8.10;99.90
23869;DHT22;12115;47.128;15.422;2022-11-14T03:38:52;8.10;99.90
23869;DHT22;12115;47.128;15.422;2022-11-14T03:41:37;8.10;99.90
23869;DHT22;12115;47.128;15.422;2022-11-14T03:44:23;8.10;99.90
23869;DHT22;12115;47.128;15.422;2022-11-14T03:47:08;8.10;99.90
23869;DHT22;12115;47.128;15.422;2022-11-14T03:49:54;8.10;99.90
23869;DHT22;12115;47.128;15.422;2022-11-14T03:52:39;8.10;99.90
23869;DHT22;12115;47.128;15.422;2022-11-14T03:55:25;8.10;99.90
23869;DHT22;12115;47.128;15.422;2022-11-14T03:58:10;8.10;99.90
23869;DHT22;12115;47.128;15.422;2022-11-14T04:00:56;8.10;99.90
23869;DHT22;12115;47.128;15.422;2022-11-14T04:03:41;8.10;99.90
23869;DHT22;12115;47.128;15.422;2022-11-14T04:06:27;8.10;99.90
23869;DHT22;12115;47.128;15.422;2022-11-14T04:09:13;8.10;99.90
23869;DHT22;12115;47.128;15.422;2022-11-14T04:11:58;8.00;99.90
23869;DHT22;12115;47.128;15.422;2022-11-14T04:14:44;8.10;99.90
23869;DHT22;12115;47.128;15.422;2022-11-14T04:17:29;8.00;99.90
23869;DHT22;12115;47.128;15.422;2022-11-14T04:20:21;8.10;99.90
23869;DHT22;12115;47.128;15.422;2022-11-14T04:23:06;8.00;99.90
23869;DHT22;12115;47.128;15.422;2022-11-14T04:25:52;8.10;99.90
23869;DHT22;12115;47.128;15.422;2022-11-14T04:28:38;8.00;99.90
23869;DHT22;12115;47.128;15.422;2022-11-14T04:31:23;8.10;99.90
23869;DHT22;12115;47.128;15.422;2022-11-14T04:34:09;8.00;99.90
23869;DHT22;12115;47.128;15.422;2022-11-14T04:36:54;8.10;99.90
23869;DHT22;12115;47.128;15.422;2022-11-14T04:39:40;8.10;99.90
23869;DHT22;12115;47.128;15.422;2022-11-14T04:42:26;8.10;99.90
23869;DHT22;12115;47.128;15.422;2022-11-14T04:45:11;8.10;99.90
23869;DHT22;12115;47.128;15.422;2022-11-14T04:47:57;8.10;99.90
23869;DHT22;12115;47.128;15.422;2022-11-14T04:50:44;8.10;99.90
23869;DHT22;12115;47.128;15.422;2022-11-14T04:53:30;8.10;99.90
23869;DHT22;12115;47.128;15.422;2022-11-14T04:56:16;8.10;99.90
23869;DHT22;12115;47.128;15.422;2022-11-14T04:59:01;8.10;99.90
23869;DHT22;12115;47.128;15.422;2022-11-14T05:01:47;8.10;99.90
23869;DHT22;12115;47.128;15.422;2022-11-14T05:04:33;8.10;99.90
23869;DHT22;12115;47.128;15.422;2022-11-14T05:07:18;8.10;99.90
23869;DHT22;12115;47.128;15.422;2022-11-14T05:10:05;8.10;99.90
23869;DHT22;12115;47.128;15.422;2022-11-14T05:12:54;8.20;99.90
23869;DHT22;12115;47.128;15.422;2022-11-14T05:15:40;8.20;99.90
23869;DHT22;12115;47.128;15.422;2022-11-14T05:18:25;8.10;99.90
23869;DHT22;12115;47.128;15.422;2022-11-14T05:21:13;8.10;99.90
23869;DHT22;12115;47.128;15.422;2022-11-14T05:23:59;8.20;99.90
23869;DHT22;12115;47.128;15.422;2022-11-14T05:26:45;8.10;99.90
23869;DHT22;12115;47.128;15.422;2022-11-14T05:29:30;8.10;99.90
23869;DHT22;12115;47.128;15.422;2022-11-14T05:32:16;8.10;99.90
23869;DHT22;12115;47.128;15.422;2022-11-14T05:35:01;8.10;99.90
23869;DHT22;12115;47.128;15.422;2022-11-14T05:37:47;8.10;99.90
23869;DHT22;12115;47.128;15.422;2022-11-14T05:40:33;8.10;99.90
23869;DHT22;12115;47.128;15.422;2022-11-14T05:43:19;8.10;99.90
23869;DHT22;12115;47.128;15.422;2022-11-14T05:46:06;8.10;99.90
23869;DHT22;12115;47.128;15.422;2022-11-14T05:48:53;8.10;99.90
23869;DHT22;12115;47.128;15.422;2022-11-14T05:51:39;8.10;99.90
23869;DHT22;12115;47.128;15.422;2022-11-14T05:54:24;8.10;99.90
23869;DHT22;12115;47.128;15.422;2022-11-14T05:57:10;8.10;99.90
23869;DHT22;12115;47.128;15.422;2022-11-14T05:59:56;8.10;99.90
23869;DHT22;12115;47.128;15.422;2022-11-14T06:02:41;8.10;99.90
23869;DHT22;12115;47.128;15.422;2022-11-14T06:05:27;8.10;99.90
23869;DHT22;12115;47.128;15.422;2022-11-14T06:08:12;8.10;99.90
23869;DHT22;12115;47.128;15.422;2022-11-14T06:11:03;8.10;99.90
23869;DHT22;12115;47.128;15.422;2022-11-14T06:13:49;8.10;99.90
23869;DHT22;12115;47.128;15.422;2022-11-14T06:16:35;8.10;99.90
23869;DHT22;12115;47.128;15.422;2022-11-14T06:19:20;8.10;99.90
23869;DHT22;12115;47.128;15.422;2022-11-14T06:22:06;8.10;99.90
23869;DHT22;12115;47.128;15.422;2022-11-14T06:24:51;8.10;99.90
23869;DHT22;12115;47.128;15.422;2022-11-14T06:27:37;8.20;99.90
23869;DHT22;12115;47.128;15.422;2022-11-14T06:30:22;8.20;99.90
23869;DHT22;12115;47.128;15.422;2022-11-14T06:33:08;8.20;99.90
23869;DHT22;12115;47.128;15.422;2022-11-14T06:36:02;8.20;99.90
23869;DHT22;12115;47.128;15.422;2022-11-14T06:38:48;8.20;99.90
23869;DHT22;12115;47.128;15.422;2022-11-14T06:41:34;8.10;99.90
23869;DHT22;12115;47.128;15.422;2022-11-14T06:44:19;8.20;99.90
23869;DHT22;12115;47.128;15.422;2022-11-14T06:47:08;8.10;99.90
23869;DHT22;12115;47.128;15.422;2022-11-14T06:49:53;8.20;99.90
23869;DHT22;12115;47.128;15.422;2022-11-14T06:52:39;8.20;99.90
23869;DHT22;12115;47.128;15.422;2022-11-14T06:55:24;8.20;99.90
23869;DHT22;12115;47.128;15.422;2022-11-14T06:58:10;8.30;99.90
23869;DHT22;12115;47.128;15.422;2022-11-14T07:00:56;8.20;99.90
23869;DHT22;12115;47.128;15.422;2022-11-14T07:03:42;8.20;99.90
23869;DHT22;12115;47.128;15.422;2022-11-14T07:06:29;8.30;99.90
23869;DHT22;12115;47.128;15.422;2022-11-14T07:09:15;8.30;99.90
23869;DHT22;12115;47.128;15.422;2022-11-14T07:12:00;8.30;99.90
23869;DHT22;12115;47.128;15.422;2022-11-14T07:14:46;8.40;99.90
23869;DHT22;12115;47.128;15.422;2022-11-14T07:17:34;8.40;99.90
23869;DHT22;12115;47.128;15.422;2022-11-14T07:20:20;8.40;99.90
23869;DHT22;12115;47.128;15.422;2022-11-14T07:23:06;8.40;99.90
23869;DHT22;12115;47.128;15.422;2022-11-14T07:25:51;8.50;99.90
23869;DHT22;12115;47.128;15.422;2022-11-14T07:28:40;8.50;99.90
23869;DHT22;12115;47.128;15.422;2022-11-14T07:31:26;8.50;99.90
23869;DHT22;12115;47.128;15.422;2022-11-14T07:34:12;8.50;99.90
23869;DHT22;12115;47.128;15.422;2022-11-14T07:36:58;8.50;99.90
23869;DHT22;12115;47.128;15.422;2022-11-14T07:39:43;8.50;99.90
23869;DHT22;12115;47.128;15.422;2022-11-14T07:42:30;8.50;99.90
23869;DHT22;12115;47.128;15.422;2022-11-14T07:45:16;8.60;99.90
23869;DHT22;12115;47.128;15.422;2022-11-14T07:48:01;8.60;99.90
23869;DHT22;12115;47.128;15.422;2022-11-14T07:50:47;8.60;99.90
23869;DHT22;12115;47.128;15.422;2022-11-14T07:53:33;8.70;99.90
23869;DHT22;12115;47.128;15.422;2022-11-14T07:56:18;8.70;99.90
23869;DHT22;12115;47.128;15.422;2022-11-14T07:59:04;8.70;99.90
23869;DHT22;12115;47.128;15.422;2022-11-14T08:01:49;8.70;99.90
23869;DHT22;12115;47.128;15.422;2022-11-14T08:04:35;8.80;99.90
23869;DHT22;12115;47.128;15.422;2022-11-14T08:07:20;8.80;99.90
23869;DHT22;12115;47.128;15.422;2022-11-14T08:10:07;8.80;99.90
23869;DHT22;12115;47.128;15.422;2022-11-14T08:13:01;8.80;99.90
23869;DHT22;12115;47.128;15.422;2022-11-14T08:16:08;8.80;99.90
23869;DHT22;12115;47.128;15.422;2022-11-14T08:18:58;8.80;99.90
23869;DHT22;12115;47.128;15.422;2022-11-14T08:21:44;8.90;99.90
23869;DHT22;12115;47.128;15.422;2022-11-14T08:24:29;8.90;99.90
23869;DHT22;12115;47.128;15.422;2022-11-14T08:27:15;9.00;99.90
23869;DHT22;12115;47.128;15.422;2022-11-14T08:30:00;9.00;99.90
23869;DHT22;12115;47.128;15.422;2022-11-14T08:32:46;9.00;99.90
23869;DHT22;12115;47.128;15.422;2022-11-14T08:35:32;9.00;99.90
23869;DHT22;12115;47.128;15.422;2022-11-14T08:38:17;9.10;99.90
23869;DHT22;12115;47.128;15.422;2022-11-14T08:41:03;9.10;99.90
23869;DHT22;12115;47.128;15.422;2022-11-14T08:43:49;9.10;99.90
23869;DHT22;12115;47.128;15.422;2022-11-14T08:46:34;9.10;99.90
23869;DHT22;12115;47.128;15.422;2022-11-14T08:49:20;9.20;99.90
23869;DHT22;12115;47.128;15.422;2022-11-14T08:52:06;9.30;99.90
23869;DHT22;12115;47.128;15.422;2022-11-14T08:54:55;9.40;99.90
23869;DHT22;12115;47.128;15.422;2022-11-14T08:57:40;9.50;99.90
23869;DHT22;12115;47.128;15.422;2022-11-14T09:00:33;9.50;99.90
23869;DHT22;12115;47.128;15.422;2022-11-14T09:03:19;9.60;99.90
23869;DHT22;12115;47.128;15.422;2022-11-14T09:06:05;9.70;99.90
23869;DHT22;12115;47.128;15.422;2022-11-14T09:08:50;9.70;99.90
23869;DHT22;12115;47.128;15.422;2022-11-14T09:11:35;9.70;99.90
23869;DHT22;12115;47.128;15.422;2022-11-14T09:14:21;9.70;99.90
23869;DHT22;12115;47.128;15.422;2022-11-14T09:17:07;9.70;99.90
23869;DHT22;12115;47.128;15.422;2022-11-14T09:19:52;9.70;99.90
23869;DHT22;12115;47.128;15.422;2022-11-14T09:22:38;9.70;99.90
23869;DHT22;12115;47.128;15.422;2022-11-14T09:25:24;9.80;99.90
23869;DHT22;12115;47.128;15.422;2022-11-14T09:28:10;9.80;99.90
23869;DHT22;12115;47.128;15.422;2022-11-14T09:31:04;9.80;99.90
23869;DHT22;12115;47.128;15.422;2022-11-14T09:33:50;10.10;99.90
23869;DHT22;12115;47.128;15.422;2022-11-14T09:36:36;10.30;99.90
23869;DHT22;12115;47.128;15.422;2022-11-14T09:39:21;10.70;99.90
23869;DHT22;12115;47.128;15.422;2022-11-14T09:45:13;11.10;99.90
23869;DHT22;12115;47.128;15.422;2022-11-14T09:48:15;11.70;99.90
23869;DHT22;12115;47.128;15.422;2022-11-14T09:51:15;12.50;99.90
23869;DHT22;12115;47.128;15.422;2022-11-14T09:57:16;14.80;99.90
23869;DHT22;12115;47.128;15.422;2022-11-14T10:00:13;15.90;99.90
23869;DHT22;12115;47.128;15.422;2022-11-14T10:06:18;17.00;99.90
23869;DHT22;12115;47.128;15.422;2022-11-14T10:15:33;18.70;99.90
23869;DHT22;12115;47.128;15.422;2022-11-14T10:18:44;19.20;99.90
23869;DHT22;12115;47.128;15.422;2022-11-14T10:31:19;18.30;97.90
23869;DHT22;12115;47.128;15.422;2022-11-14T10:34:08;16.60;99.90
23869;DHT22;12115;47.128;15.422;2022-11-14T10:39:45;15.60;99.90
23869;DHT22;12115;47.128;15.422;2022-11-14T10:42:34;15.30;99.90
23869;DHT22;12115;47.128;15.422;2022-11-14T10:45:28;15.10;99.90
23869;DHT22;12115;47.128;15.422;2022-11-14T10:48:16;15.00;99.90
23869;DHT22;12115;47.128;15.422;2022-11-14T10:51:07;14.90;99.90
23869;DHT22;12115;47.128;15.422;2022-11-14T10:54:09;14.70;99.90
23869;DHT22;12115;47.128;15.422;2022-11-14T10:56:57;14.30;99.90
23869;DHT22;12115;47.128;15.422;2022-11-14T10:59:43;14.30;99.90
23869;DHT22;12115;47.128;15.422;2022-11-14T11:02:55;14.20;99.90
23869;DHT22;12115;47.128;15.422;2022-11-14T11:05:45;14.30;99.90
23869;DHT22;12115;47.128;15.422;2022-11-14T11:08:31;14.40;99.90
23869;DHT22;12115;47.128;15.422;2022-11-14T11:11:58;14.40;99.90
23869;DHT22;12115;47.128;15.422;2022-11-14T11:14:47;14.80;99.90
23869;DHT22;12115;47.128;15.422;2022-11-14T11:17:33;14.60;99.90
23869;DHT22;12115;47.128;15.422;2022-11-14T11:23:19;14.10;99.90
23869;DHT22;12115;47.128;15.422;2022-11-14T11:26:20;14.20;99.90
23869;DHT22;12115;47.128;15.422;2022-11-14T11:31:56;14.00;99.90
23869;DHT22;12115;47.128;15.422;2022-11-14T11:34:45;14.10;99.90
23869;DHT22;12115;47.128;15.422;2022-11-14T11:40:21;14.20;99.90
23869;DHT22;12115;47.128;15.422;2022-11-14T11:46:39;14.20;99.90
23869;DHT22;12115;47.128;15.422;2022-11-14T11:56:00;14.10;99.90
23869;DHT22;12115;47.128;15.422;2022-11-14T11:58:49;14.00;99.90
23869;DHT22;12115;47.128;15.422;2022-11-14T12:01:35;14.00;99.90
23869;DHT22;12115;47.128;15.422;2022-11-14T12:04:21;13.90;99.90
23869;DHT22;12115;47.128;15.422;2022-11-14T12:08:10;13.80;99.90
23869;DHT22;12115;47.128;15.422;2022-11-14T12:10:29;13.60;99.90
23869;DHT22;12115;47.128;15.422;2022-11-14T12:13:41;13.60;99.90
23869;DHT22;12115;47.128;15.422;2022-11-14T12:22:37;13.60;99.90
23869;DHT22;12115;47.128;15.422;2022-11-14T12:26:19;13.70;99.90
23869;DHT22;12115;47.128;15.422;2022-11-14T12:32:16;13.30;99.90
23869;DHT22;12115;47.128;15.422;2022-11-14T12:35:04;13.40;99.90
23869;DHT22;12115;47.128;15.422;2022-11-14T12:37:53;13.30;99.90
23869;DHT22;12115;47.128;15.422;2022-11-14T12:40:47;13.40;99.90
23869;DHT22;12115;47.128;15.422;2022-11-14T12:43:37;13.40;99.90
23869;DHT22;12115;47.128;15.422;2022-11-14T12:46:24;13.30;99.90
23869;DHT22;12115;47.128;15.422;2022-11-14T12:49:55;13.40;99.90
23869;DHT22;12115;47.128;15.422;2022-11-14T12:52:51;13.40;99.90
23869;DHT22;12115;47.128;15.422;2022-11-14T12:58:35;13.40;99.90
23869;DHT22;12115;47.128;15.422;2022-11-14T13:04:52;13.30;99.90
23869;DHT22;12115;47.128;15.422;2022-11-14T13:07:50;13.30;99.90
23869;DHT22;12115;47.128;15.422;2022-11-14T13:10:40;13.30;99.90
23869;DHT22;12115;47.128;15.422;2022-11-14T13:13:25;13.20;99.90
23869;DHT22;12115;47.128;15.422;2022-11-14T13:16:30;13.30;99.90
23869;DHT22;12115;47.128;15.422;2022-11-14T13:19:44;13.30;99.90
23869;DHT22;12115;47.128;15.422;2022-11-14T13:22:48;13.30;99.90
23869;DHT22;12115;47.128;15.422;2022-11-14T13:25:33;13.30;99.90
23869;DHT22;12115;47.128;15.422;2022-11-14T13:28:42;13.30;99.90
23869;DHT22;12115;47.128;15.422;2022-11-14T13:34:44;13.10;99.90
23869;DHT22;12115;47.128;15.422;2022-11-14T13:41:28;13.10;99.90
23869;DHT22;12115;47.128;15.422;2022-11-14T13:50:18;13.10;99.90
23869;DHT22;12115;47.128;15.422;2022-11-14T13:53:14;13.10;99.90
23869;DHT22;12115;47.128;15.422;2022-11-14T13:59:08;13.00;99.90
23869;DHT22;12115;47.128;15.422;2022-11-14T14:23:35;12.80;99.90
23869;DHT22;12115;47.128;15.422;2022-11-14T14:35:57;12.70;99.90
23869;DHT22;12115;47.128;15.422;2022-11-14T14:38:42;12.70;99.90
23869;DHT22;12115;47.128;15.422;2022-11-14T14:41:30;12.70;99.90
23869;DHT22;12115;47.128;15.422;2022-11-14T14:44:38;12.70;99.90
23869;DHT22;12115;47.128;15.422;2022-11-14T14:47:41;12.70;99.90
23869;DHT22;12115;47.128;15.422;2022-11-14T14:50:37;12.70;99.90
23869;DHT22;12115;47.128;15.422;2022-11-14T14:53:29;12.50;99.90
23869;DHT22;12115;47.128;15.422;2022-11-14T14:56:20;12.50;99.90
23869;DHT22;12115;47.128;15.422;2022-11-14T14:59:17;12.40;99.90
23869;DHT22;12115;47.128;15.422;2022-11-14T15:02:07;12.40;99.90
23869;DHT22;12115;47.128;15.422;2022-11-14T15:04:57;12.50;99.90
23869;DHT22;12115;47.128;15.422;2022-11-14T15:07:43;12.40;99.90
23869;DHT22;12115;47.128;15.422;2022-11-14T15:10:31;12.40;99.90
23869;DHT22;12115;47.128;15.422;2022-11-14T15:13:17;12.40;99.90
23869;DHT22;12115;47.128;15.422;2022-11-14T15:16:03;12.40;99.90
23869;DHT22;12115;47.128;15.422;2022-11-14T15:18:51;12.40;99.90
23869;DHT22;12115;47.128;15.422;2022-11-14T15:21:36;12.40;99.90
23869;DHT22;12115;47.128;15.422;2022-11-14T15:24:22;12.30;99.90
23869;DHT22;12115;47.128;15.422;2022-11-14T15:27:13;12.20;99.90
23869;DHT22;12115;47.128;15.422;2022-11-14T15:30:02;12.10;99.90
23869;DHT22;12115;47.128;15.422;2022-11-14T15:32:54;12.10;99.90
23869;DHT22;12115;47.128;15.422;2022-11-14T15:35:40;12.10;99.90
23869;DHT22;12115;47.128;15.422;2022-11-14T15:38:25;12.10;99.90
23869;DHT22;12115;47.128;15.422;2022-11-14T15:41:34;12.20;99.90
23869;DHT22;12115;47.128;15.422;2022-11-14T15:44:31;12.10;99.90
23869;DHT22;12115;47.128;15.422;2022-11-14T15:53:01;11.90;99.90
23869;DHT22;12115;47.128;15.422;2022-11-14T15:55:48;12.00;99.90
23869;DHT22;12115;47.128;15.422;2022-11-14T15:58:33;11.90;99.90
23869;DHT22;12115;47.128;15.422;2022-11-14T16:01:22;11.90;99.90
23869;DHT22;12115;47.128;15.422;2022-11-14T16:04:22;11.90;99.90
23869;DHT22;12115;47.128;15.422;2022-11-14T16:07:11;11.80;99.90
23869;DHT22;12115;47.128;15.422;2022-11-14T16:09:57;11.80;99.90
23869;DHT22;12115;47.128;15.422;2022-11-14T16:12:43;11.90;99.90
23869;DHT22;12115;47.128;15.422;2022-11-14T16:15:36;11.80;99.90
23869;DHT22;12115;47.128;15.422;2022-11-14T16:18:21;11.90;99.90
23869;DHT22;12115;47.128;15.422;2022-11-14T16:21:11;11.90;99.90
23869;DHT22;12115;47.128;15.422;2022-11-14T16:23:58;11.90;99.90
23869;DHT22;12115;47.128;15.422;2022-11-14T16:26:44;11.80;99.90
23869;DHT22;12115;47.128;15.422;2022-11-14T16:29:29;11.80;99.90
23869;DHT22;12115;47.128;15.422;2022-11-14T16:32:15;11.90;99.90
23869;DHT22;12115;47.128;15.422;2022-11-14T16:35:01;11.90;99.90
23869;DHT22;12115;47.128;15.422;2022-11-14T16:37:46;11.90;99.90
23869;DHT22;12115;47.128;15.422;2022-11-14T16:40:32;11.80;99.90
23869;DHT22;12115;47.128;15.422;2022-11-14T16:43:18;11.80;99.90
23869;DHT22;12115;47.128;15.422;2022-11-14T16:46:04;11.70;99.90
23869;DHT22;12115;47.128;15.422;2022-11-14T16:48:50;11.70;99.90
23869;DHT22;12115;47.128;15.422;2022-11-14T16:51:36;11.70;99.90
23869;DHT22;12115;47.128;15.422;2022-11-14T16:54:33;11.60;99.90
23869;DHT22;12115;47.128;15.422;2022-11-14T16:57:19;11.50;99.90
23869;DHT22;12115;47.128;15.422;2022-11-14T17:00:10;11.60;99.90
23869;DHT22;12115;47.128;15.422;2022-11-14T17:02:57;11.60;99.90
23869;DHT22;12115;47.128;15.422;2022-11-14T17:05:43;11.70;99.90
23869;DHT22;12115;47.128;15.422;2022-11-14T17:08:29;11.60;99.90
23869;DHT22;12115;47.128;15.422;2022-11-14T17:11:15;11.60;99.90
23869;DHT22;12115;47.128;15.422;2022-11-14T17:14:01;11.60;99.90
23869;DHT22;12115;47.128;15.422;2022-11-14T17:16:46;11.60;99.90
23869;DHT22;12115;47.128;15.422;2022-11-14T17:19:32;11.60;99.90
23869;DHT22;12115;47.128;15.422;2022-11-14T17:22:18;11.60;99.90
23869;DHT22;12115;47.128;15.422;2022-11-14T17:25:04;11.60;99.90
23869;DHT22;12115;47.128;15.422;2022-11-14T17:27:51;11.50;99.90
23869;DHT22;12115;47.128;15.422;2022-11-14T17:30:41;11.40;99.90
23869;DHT22;12115;47.128;15.422;2022-11-14T17:33:27;11.40;99.90
23869;DHT22;12115;47.128;15.422;2022-11-14T17:36:13;11.30;99.90
23869;DHT22;12115;47.128;15.422;2022-11-14T17:38:59;11.30;99.90
23869;DHT22;12115;47.128;15.422;2022-11-14T17:41:45;11.30;99.90
23869;DHT22;12115;47.128;15.422;2022-11-14T17:44:31;11.30;99.90
23869;DHT22;12115;47.128;15.422;2022-11-14T17:47:18;11.30;99.90
23869;DHT22;12115;47.128;15.422;2022-11-14T17:50:05;11.30;99.90
23869;DHT22;12115;47.128;15.422;2022-11-14T17:52:51;11.30;99.90
23869;DHT22;12115;47.128;15.422;2022-11-14T17:55:37;11.30;99.90
23869;DHT22;12115;47.128;15.422;2022-11-14T17:58:27;11.30;99.90
23869;DHT22;12115;47.128;15.422;2022-11-14T18:01:16;11.30;99.90
23869;DHT22;12115;47.128;15.422;2022-11-14T18:04:03;11.30;99.90
23869;DHT22;12115;47.128;15.422;2022-11-14T18:06:52;11.30;99.90
23869;DHT22;12115;47.128;15.422;2022-11-14T18:09:38;11.30;99.90
23869;DHT22;12115;47.128;15.422;2022-11-14T18:12:25;11.30;99.90
23869;DHT22;12115;47.128;15.422;2022-11-14T18:15:11;11.30;99.90
23869;DHT22;12115;47.128;15.422;2022-11-14T18:17:59;11.30;99.90
23869;DHT22;12115;47.128;15.422;2022-11-14T18:20:46;11.20;99.90
23869;DHT22;12115;47.128;15.422;2022-11-14T18:23:31;11.20;99.90
23869;DHT22;12115;47.128;15.422;2022-11-14T18:26:18;11.20;99.90
23869;DHT22;12115;47.128;15.422;2022-11-14T18:29:06;11.20;99.90
23869;DHT22;12115;47.128;15.422;2022-11-14T18:31:52;11.20;99.90
23869;DHT22;12115;47.128;15.422;2022-11-14T18:34:40;11.20;99.90
23869;DHT22;12115;47.128;15.422;2022-11-14T18:37:26;11.20;99.90
23869;DHT22;12115;47.128;15.422;2022-11-14T18:40:13;11.20;99.90
23869;DHT22;12115;47.128;15.422;2022-11-14T18:43:01;11.20;99.90
23869;DHT22;12115;47.128;15.422;2022-11-14T18:45:48;11.20;99.90
23869;DHT22;12115;47.128;15.422;2022-11-14T18:48:35;11.10;99.90
23869;DHT22;12115;47.128;15.422;2022-11-14T18:51:26;11.10;99.90
23869;DHT22;12115;47.128;15.422;2022-11-14T18:54:14;11.10;99.90
23869;DHT22;12115;47.128;15.422;2022-11-14T18:57:01;11.00;99.90
23869;DHT22;12115;47.128;15.422;2022-11-14T18:59:47;11.00;99.90
23869;DHT22;12115;47.128;15.422;2022-11-14T19:02:33;11.00;99.90
23869;DHT22;12115;47.128;15.422;2022-11-14T19:05:19;11.00;99.90
23869;DHT22;12115;47.128;15.422;2022-11-14T19:08:06;11.10;99.90
23869;DHT22;12115;47.128;15.422;2022-11-14T19:10:52;11.10;99.90
23869;DHT22;12115;47.128;15.422;2022-11-14T19:13:38;11.00;99.90
23869;DHT22;12115;47.128;15.422;2022-11-14T19:16:28;11.00;99.90
23869;DHT22;12115;47.128;15.422;2022-11-14T19:19:16;11.00;99.90
23869;DHT22;12115;47.128;15.422;2022-11-14T19:22:03;11.10;99.90
23869;DHT22;12115;47.128;15.422;2022-11-14T19:24:51;11.00;99.90
23869;DHT22;12115;47.128;15.422;2022-11-14T19:27:37;10.90;99.90
23869;DHT22;12115;47.128;15.422;2022-11-14T19:30:25;10.90;99.90
23869;DHT22;12115;47.128;15.422;2022-11-14T19:33:12;10.90;99.90